Clearwater, Canada
Current Conditions -  °F | °C
As of 6:00 AM on Thursday 30 Oct 2014 (Local Time) from CYKA Reporting Station
Scattered Clouds Scattered Clouds  
Wind Chill: 40°   Ceiling: Unl
Heat Index: 45°   Visibility: 40mi
Dew Point: 41°   Wind: 9mph
Humidity: 87%   Direction: 70°ENE
Pressure: 30.09"   Gusts: NA
Location:  51.65°N, 120.03°W
Report Text: CYKA 301300Z 07008KT 40SM SCT055 SCT120 07/05 A3009 RMK SC3AC1 SLP199
Loading
Personal Weather Stations






























Interactive Weather Map
Tropical Storm Tracking
New forecast layout! Learn more

10-Day Weather Forecast

Advertisements
Track Severe Weather on mobile